createdAt,value
2023-02-19T20:52:04.805Z,38.99
2023-02-19T20:54:37.263Z,39.60
2023-02-19T20:57:09.024Z,40.59
2023-02-19T20:59:43.532Z,40.51
2023-02-19T21:02:20.170Z,40.15
2023-02-19T21:04:50.658Z,40.22
2023-02-19T21:07:22.403Z,40.14
2023-02-19T21:09:53.263Z,40.25
2023-02-19T21:12:25.019Z,40.88
2023-02-19T21:14:55.496Z,40.66
2023-02-19T21:17:26.056Z,41.49
2023-02-19T21:19:56.903Z,42.83
2023-02-19T21:22:27.548Z,42.21
2023-02-19T21:24:58.053Z,41.43
2023-02-19T21:27:28.580Z,40.77
2023-02-19T21:30:00.123Z,41.42
2023-02-19T21:32:31.123Z,41.49
2023-02-19T21:35:02.741Z,41.80
2023-02-19T21:37:33.431Z,42.50
2023-02-19T21:40:03.952Z,41.99
2023-02-19T21:42:35.671Z,43.10
2023-02-19T21:45:06.626Z,42.05
2023-02-19T21:47:37.130Z,42.08
2023-02-19T21:50:08.917Z,41.27
2023-02-19T21:52:39.386Z,41.71
2023-02-19T21:55:09.946Z,41.73
2023-02-19T21:57:40.628Z,41.84
2023-02-19T22:00:12.116Z,41.07
2023-02-19T22:02:45.847Z,41.56
2023-02-19T22:05:16.579Z,42.12
2023-02-19T22:07:48.677Z,42.90
2023-02-19T22:10:20.512Z,42.88
2023-02-19T22:12:50.993Z,41.27
2023-02-19T22:15:26.244Z,41.56
2023-02-19T22:18:00.714Z,40.74
2023-02-19T22:20:31.193Z,42.10
2023-02-19T22:23:01.993Z,41.34
2023-02-19T22:25:32.470Z,41.39
2023-02-19T22:28:05.787Z,41.88
2023-02-19T22:30:36.323Z,42.57
2023-02-19T22:33:07.183Z,41.63
2023-02-19T22:35:37.695Z,41.50
2023-02-19T22:38:08.263Z,42.04
2023-02-19T22:40:38.709Z,42.26
2023-02-19T22:43:09.210Z,41.16
2023-02-19T22:45:39.801Z,40.66
2023-02-19T22:48:11.637Z,41.55
2023-02-19T22:50:42.491Z,41.18
2023-02-19T22:53:12.970Z,41.42
2023-02-19T22:55:43.466Z,41.21
2023-02-19T22:58:13.972Z,41.94
2023-02-19T23:00:44.422Z,41.11
2023-02-19T23:03:15.094Z,40.85
2023-02-19T23:05:46.769Z,41.47
2023-02-19T23:08:17.241Z,41.00
2023-02-19T23:10:47.705Z,40.78
2023-02-19T23:13:18.233Z,41.80
2023-02-19T23:15:48.728Z,43.06
2023-02-19T23:18:19.390Z,41.76
2023-02-19T23:20:49.870Z,41.39
2023-02-19T23:23:20.339Z,43.30
2023-02-19T23:25:50.848Z,42.46
2023-02-19T23:28:21.384Z,43.58
2023-02-19T23:30:52.033Z,43.31
2023-02-19T23:33:22.622Z,42.31
2023-02-19T23:35:53.070Z,43.68
2023-02-19T23:38:24.973Z,42.20
2023-02-19T23:40:59.131Z,43.33
2023-02-19T23:43:35.568Z,42.64
2023-02-19T23:46:08.052Z,43.81
2023-02-19T23:48:40.226Z,43.33
2023-02-19T23:51:14.702Z,43.51
2023-02-19T23:53:49.530Z,44.41
2023-02-19T23:56:31.231Z,42.66
2023-02-19T23:59:09.285Z,42.22
